createdAt,value
2019-03-08T00:00:09.513Z,61.43
2019-03-08T00:02:38.110Z,56.00
2019-03-08T00:05:06.752Z,54.97
2019-03-08T00:07:35.635Z,49.63
2019-03-08T00:10:05.008Z,54.10
2019-03-08T00:12:33.637Z,56.37
2019-03-08T00:15:02.233Z,61.90
2019-03-08T00:17:30.861Z,61.07
2019-03-08T00:19:59.521Z,59.13
2019-03-08T00:22:28.252Z,68.00
2019-03-08T00:24:56.810Z,70.13
2019-03-08T00:27:25.483Z,75.33
2019-03-08T00:29:54.043Z,68.00
2019-03-08T00:32:22.652Z,59.17
2019-03-08T00:34:51.278Z,58.57
2019-03-08T00:37:20.055Z,56.53
2019-03-08T00:39:48.728Z,74.30
2019-03-08T00:42:17.350Z,75.10
2019-03-08T00:44:51.984Z,72.30
2019-03-08T00:47:20.611Z,80.57
2019-03-08T00:49:49.244Z,80.03
2019-03-08T00:52:17.851Z,69.83
2019-03-08T00:54:46.478Z,71.93
2019-03-08T00:57:15.034Z,76.40
2019-03-08T00:59:43.601Z,69.57
2019-03-08T01:02:12.202Z,79.87
2019-03-08T01:04:40.833Z,78.57
2019-03-08T01:07:09.506Z,75.00
2019-03-08T01:09:38.130Z,76.50
2019-03-08T01:12:06.772Z,83.13
2019-03-08T01:14:35.377Z,85.70
2019-03-08T01:17:04.105Z,88.17
2019-03-08T01:19:32.705Z,99.37
2019-03-08T01:22:01.342Z,92.10
2019-03-08T01:24:29.941Z,92.40
2019-03-08T01:26:58.578Z,90.20
2019-03-08T01:29:27.247Z,83.70
2019-03-08T01:31:55.875Z,87.23
2019-03-08T01:34:24.852Z,93.30
2019-03-08T01:36:53.486Z,90.50
2019-03-08T01:39:22.170Z,81.27
2019-03-08T01:41:50.798Z,70.13
2019-03-08T01:44:19.411Z,69.57
2019-03-08T01:46:48.037Z,73.20
2019-03-08T01:49:16.944Z,74.43
2019-03-08T01:51:45.540Z,70.60
2019-03-08T01:54:14.094Z,66.07
2019-03-08T01:56:42.959Z,66.90
2019-03-08T01:59:11.608Z,59.93
2019-03-08T02:01:40.237Z,68.80
2019-03-08T02:04:09.159Z,61.50
2019-03-08T02:06:37.851Z,69.70
2019-03-08T02:09:07.265Z,65.43
2019-03-08T02:11:35.800Z,55.67
2019-03-08T02:14:04.430Z,56.93
2019-03-08T02:16:33.101Z,56.43
2019-03-08T02:19:01.946Z,61.50
2019-03-08T02:21:30.620Z,68.27
2019-03-08T02:23:59.189Z,70.60
2019-03-08T02:26:27.933Z,69.87
2019-03-08T02:28:56.563Z,76.10
2019-03-08T02:31:25.128Z,70.27
2019-03-08T02:33:53.752Z,62.23
2019-03-08T02:36:22.373Z,73.17
2019-03-08T02:38:50.865Z,65.30
2019-03-08T02:41:19.545Z,74.47
2019-03-08T02:43:48.030Z,67.50
2019-03-08T02:46:16.585Z,70.67
2019-03-08T02:48:45.152Z,79.30
2019-03-08T02:51:13.704Z,71.63
2019-03-08T02:53:42.197Z,72.07
2019-03-08T02:56:10.680Z,66.50
2019-03-08T02:58:39.216Z,77.60
2019-03-08T03:01:07.764Z,72.67
2019-03-08T03:03:36.439Z,67.23
2019-03-08T03:06:05.001Z,67.07
2019-03-08T03:08:33.632Z,72.97
2019-03-08T03:11:02.307Z,71.87
2019-03-08T03:13:30.875Z,69.27
2019-03-08T03:15:59.480Z,55.13
2019-03-08T03:18:27.959Z,57.13
2019-03-08T03:20:56.640Z,56.53
2019-03-08T03:23:25.112Z,55.30
2019-03-08T03:25:53.736Z,53.23
2019-03-08T03:28:22.302Z,56.97
2019-03-08T03:30:50.914Z,58.90
2019-03-08T03:33:19.504Z,58.23
2019-03-08T03:35:48.132Z,61.40
2019-03-08T03:38:16.730Z,63.87
2019-03-08T03:40:45.411Z,59.40
2019-03-08T03:43:14.021Z,67.83
2019-03-08T03:45:42.579Z,63.10
2019-03-08T03:48:11.215Z,66.33
2019-03-08T03:50:39.855Z,70.00
2019-03-08T03:53:08.520Z,66.67
2019-03-08T03:55:37.089Z,50.17
2019-03-08T03:58:05.767Z,55.00
2019-03-08T04:00:34.462Z,49.90
2019-03-08T04:03:03.086Z,52.33
2019-03-08T04:05:31.713Z,60.87
2019-03-08T04:08:00.274Z,57.77
2019-03-08T04:10:28.838Z,73.67
2019-03-08T04:12:57.404Z,60.53
2019-03-08T04:15:26.044Z,63.27
2019-03-08T04:17:54.534Z,72.40
2019-03-08T04:20:23.162Z,69.80
2019-03-08T04:22:51.767Z,63.03
2019-03-08T04:25:20.399Z,69.20
2019-03-08T04:27:49.091Z,70.90
2019-03-08T04:30:19.477Z,55.70
2019-03-08T04:32:48.079Z,68.07
2019-03-08T04:35:16.752Z,61.10
2019-03-08T04:37:45.413Z,64.50
2019-03-08T04:40:14.621Z,58.73
2019-03-08T04:42:43.302Z,67.20
2019-03-08T04:45:15.207Z,73.67
2019-03-08T04:47:43.886Z,66.77
2019-03-08T04:50:14.789Z,70.93
2019-03-08T04:52:43.427Z,70.23
2019-03-08T04:55:17.828Z,65.57
2019-03-08T04:57:47.020Z,67.33
2019-03-08T05:00:17.346Z,64.97
2019-03-08T05:02:46.019Z,58.60
2019-03-08T05:05:14.653Z,60.67
2019-03-08T05:07:43.282Z,50.33
2019-03-08T05:10:16.388Z,65.23
2019-03-08T05:12:45.023Z,54.50
2019-03-08T05:15:13.956Z,46.27
2019-03-08T05:17:42.690Z,51.43
2019-03-08T05:20:11.762Z,44.03
2019-03-08T05:22:40.383Z,43.83
2019-03-08T05:25:11.064Z,43.37
2019-03-08T05:27:39.737Z,42.70
2019-03-08T05:30:11.675Z,43.53
2019-03-08T05:32:40.343Z,39.47
2019-03-08T05:35:09.918Z,46.00
2019-03-08T05:37:38.556Z,48.57
2019-03-08T05:40:10.155Z,69.17
2019-03-08T05:42:38.699Z,66.20
2019-03-08T05:45:15.316Z,73.13
2019-03-08T05:47:43.995Z,74.17
2019-03-08T05:50:13.125Z,68.77
2019-03-08T05:52:42.039Z,63.83
2019-03-08T05:55:11.608Z,72.97
2019-03-08T05:57:43.074Z,67.17
2019-03-08T06:00:35.453Z,64.43
2019-03-08T06:03:04.581Z,78.83
2019-03-08T06:05:33.330Z,63.17
2019-03-08T06:08:04.926Z,68.43
2019-03-08T06:10:35.033Z,64.07
2019-03-08T06:13:06.714Z,56.90
2019-03-08T06:15:38.246Z,61.43
2019-03-08T06:18:08.348Z,57.60
2019-03-08T06:20:39.592Z,53.17
2019-03-08T06:23:08.254Z,62.50
2019-03-08T06:25:37.014Z,69.70
2019-03-08T06:28:05.839Z,67.53
2019-03-08T06:30:35.769Z,68.17
2019-03-08T06:33:04.635Z,59.50
2019-03-08T06:35:33.272Z,51.47
2019-03-08T06:38:02.012Z,48.83
2019-03-08T06:40:30.871Z,47.63
2019-03-08T06:43:02.788Z,53.60
2019-03-08T06:45:33.842Z,42.73
2019-03-08T06:48:02.977Z,40.43
2019-03-08T06:50:34.819Z,37.30
2019-03-08T06:53:06.505Z,30.93
2019-03-08T06:55:35.407Z,37.13
2019-03-08T06:58:05.216Z,29.87
2019-03-08T07:00:39.040Z,31.20
2019-03-08T07:03:09.558Z,26.17
2019-03-08T07:05:38.278Z,27.60
2019-03-08T07:08:07.055Z,30.03
2019-03-08T07:10:35.710Z,28.37
2019-03-08T07:13:04.482Z,31.37
2019-03-08T07:15:36.154Z,26.60
2019-03-08T07:18:12.274Z,32.87
2019-03-08T07:20:45.854Z,24.33
2019-03-08T07:23:16.148Z,23.90
2019-03-08T07:25:51.497Z,27.13
2019-03-08T07:28:18.290Z,35.87
2019-03-08T07:30:54.882Z,33.87
2019-03-08T07:33:26.902Z,27.30
2019-03-08T07:36:13.498Z,50.57
2019-03-08T07:38:49.507Z,31.07
2019-03-08T07:41:29.127Z,27.03
2019-03-08T07:44:15.763Z,25.47
2019-03-08T07:46:52.408Z,27.93
2019-03-08T07:49:22.746Z,24.73
2019-03-08T07:51:58.756Z,32.80
2019-03-08T07:54:29.005Z,23.27
2019-03-08T07:57:02.064Z,25.60
2019-03-08T07:59:32.381Z,25.60
2019-03-08T08:02:02.664Z,25.53
2019-03-08T08:04:32.867Z,24.80
2019-03-08T08:07:03.084Z,21.80
2019-03-08T08:09:48.086Z,27.13
2019-03-08T08:12:21.085Z,36.07
2019-03-08T08:14:57.076Z,25.90
2019-03-08T08:17:36.371Z,25.87
2019-03-08T08:20:16.305Z,61.50
2019-03-08T08:22:44.513Z,22.98
2019-03-08T08:25:17.510Z,24.67
2019-03-08T08:27:53.648Z,25.30
2019-03-08T08:30:26.893Z,101.90
2019-03-08T08:33:13.635Z,28.52
2019-03-08T08:35:49.950Z,23.98
2019-03-08T08:38:23.146Z,26.20
2019-03-08T08:41:08.558Z,27.00
2019-03-08T08:43:41.654Z,22.20
2019-03-08T08:46:12.142Z,19.23
2019-03-08T08:48:58.823Z,27.90
2019-03-08T08:51:38.044Z,25.77
2019-03-08T08:54:24.682Z,25.85
2019-03-08T08:56:55.058Z,29.98
2019-03-08T08:59:25.435Z,29.92
2019-03-08T09:02:01.800Z,18.50
2019-03-08T09:04:38.176Z,24.75
2019-03-08T09:07:26.696Z,17.52
2019-03-08T09:09:57.151Z,22.02
2019-03-08T09:12:36.636Z,22.35
2019-03-08T09:15:12.689Z,66.50
2019-03-08T09:17:49.025Z,20.02
2019-03-08T09:20:25.241Z,16.70
2019-03-08T09:23:06.032Z,16.62
2019-03-08T09:25:41.365Z,17.48
2019-03-08T09:28:14.714Z,13.88
2019-03-08T09:30:45.033Z,15.78
2019-03-08T09:33:27.688Z,17.67
2019-03-08T09:36:14.437Z,15.90
2019-03-08T09:38:47.857Z,16.55
2019-03-08T09:41:18.451Z,17.27
2019-03-08T09:43:58.499Z,15.03
2019-03-08T09:46:29.158Z,17.77
2019-03-08T09:49:05.506Z,15.53
2019-03-08T09:51:45.013Z,18.02
2019-03-08T09:54:31.568Z,14.90
2019-03-08T09:57:03.149Z,23.38
2019-03-08T09:59:33.521Z,14.10
2019-03-08T10:02:11.543Z,29.63
2019-03-08T10:04:46.250Z,35.10
2019-03-08T10:07:16.640Z,17.67
2019-03-08T10:09:49.699Z,15.65
2019-03-08T10:12:19.963Z,14.47
2019-03-08T10:18:11.721Z,12.53
2019-03-08T10:20:41.993Z,14.38
2019-03-08T10:23:27.457Z,12.80
2019-03-08T10:26:07.082Z,14.50
2019-03-08T10:28:43.246Z,13.25
2019-03-08T10:31:29.604Z,18.77
2019-03-08T10:34:08.731Z,10.93
2019-03-08T10:36:48.097Z,17.57
2019-03-08T10:39:18.422Z,12.43
2019-03-08T10:41:57.436Z,18.52
2019-03-08T10:44:30.526Z,13.62
2019-03-08T10:47:00.853Z,16.62
2019-03-08T10:49:34.047Z,13.90
2019-03-08T10:52:04.844Z,12.33
2019-03-08T10:54:47.020Z,12.23
2019-03-08T10:57:17.533Z,14.38
2019-03-08T10:59:55.072Z,17.17
2019-03-08T11:02:25.556Z,18.85
2019-03-08T11:04:55.854Z,15.75
2019-03-08T11:07:26.228Z,22.25
2019-03-08T11:09:59.687Z,10.80
2019-03-08T11:12:30.088Z,13.48
2019-03-08T11:15:03.739Z,14.78
2019-03-08T11:17:34.188Z,12.73
2019-03-08T11:20:25.071Z,11.70
2019-03-08T11:23:14.331Z,9.30
2019-03-08T11:25:49.091Z,23.62
2019-03-08T11:28:22.473Z,18.23
2019-03-08T11:31:05.015Z,25.32
2019-03-08T11:33:35.403Z,16.10
2019-03-08T11:36:05.662Z,17.27
2019-03-08T11:38:42.133Z,14.87
2019-03-08T11:41:27.819Z,13.05
2019-03-08T11:44:07.233Z,16.60
2019-03-08T11:46:46.701Z,15.72
2019-03-08T11:49:19.922Z,18.37
2019-03-08T11:51:50.471Z,16.55
2019-03-08T11:54:25.037Z,22.87
2019-03-08T11:57:10.574Z,28.30
2019-03-08T11:59:40.947Z,19.70
2019-03-08T12:02:11.249Z,29.37
2019-03-08T12:04:44.107Z,19.15
2019-03-08T12:07:14.279Z,16.50
2019-03-08T12:09:44.599Z,22.75
2019-03-08T12:12:14.989Z,14.05
2019-03-08T12:14:51.342Z,18.32
2019-03-08T12:17:27.574Z,23.10
2019-03-08T12:20:03.725Z,18.62
2019-03-08T12:22:40.223Z,17.45
2019-03-08T12:25:27.095Z,17.62
2019-03-08T12:28:06.547Z,13.93
2019-03-08T12:30:44.585Z,18.15
2019-03-08T12:33:20.834Z,17.67
2019-03-08T12:36:00.028Z,16.02
2019-03-08T12:38:36.059Z,17.65
2019-03-08T12:41:06.376Z,18.57
2019-03-08T12:43:45.602Z,23.75
2019-03-08T12:46:21.727Z,27.45
2019-03-08T12:49:01.155Z,24.60
2019-03-08T12:51:43.311Z,17.82
2019-03-08T12:54:19.568Z,17.10
2019-03-08T12:57:06.134Z,15.48
2019-03-08T12:59:39.034Z,17.65
2019-03-08T13:02:12.088Z,16.60
2019-03-08T13:04:42.288Z,20.92
2019-03-08T13:07:12.413Z,12.55
2019-03-08T13:09:49.595Z,11.95
2019-03-08T13:12:18.242Z,33.92
2019-03-08T13:14:46.840Z,16.00
2019-03-08T13:17:15.509Z,14.90
2019-03-08T13:19:44.062Z,14.55
2019-03-08T13:22:12.736Z,21.10
2019-03-08T13:24:41.296Z,20.50
2019-03-08T13:27:09.966Z,20.25
2019-03-08T13:29:38.521Z,24.85
2019-03-08T13:32:07.073Z,25.00
2019-03-08T13:34:38.579Z,18.37
2019-03-08T13:37:09.944Z,12.80
2019-03-08T13:39:38.905Z,29.90
2019-03-08T13:42:07.583Z,24.87
2019-03-08T13:44:36.189Z,24.45
2019-03-08T13:47:05.004Z,21.17
2019-03-08T13:49:33.627Z,23.77
2019-03-08T13:52:02.266Z,23.10
2019-03-08T13:54:33.812Z,20.55
2019-03-08T13:57:02.492Z,43.58
2019-03-08T13:59:30.988Z,15.95
2019-03-08T14:01:59.664Z,21.70
2019-03-08T14:04:28.233Z,22.07
2019-03-08T14:06:56.909Z,19.37
2019-03-08T14:09:25.610Z,22.65
2019-03-08T14:11:54.306Z,39.03
2019-03-08T14:14:22.981Z,37.40
2019-03-08T14:16:51.583Z,21.53
2019-03-08T14:19:20.066Z,24.20
2019-03-08T14:21:48.744Z,30.83
2019-03-08T14:24:17.329Z,54.37
2019-03-08T14:26:45.951Z,43.07
2019-03-08T14:29:14.514Z,34.67
2019-03-08T14:31:49.344Z,35.03
2019-03-08T14:34:17.911Z,55.90
2019-03-08T14:36:46.527Z,40.90
2019-03-08T14:39:15.127Z,65.60
2019-03-08T14:41:51.007Z,31.57
2019-03-08T14:44:22.801Z,58.03
2019-03-08T14:46:56.323Z,37.07
2019-03-08T14:49:24.312Z,27.03
2019-03-08T14:51:52.981Z,31.60
2019-03-08T14:54:22.042Z,31.83
2019-03-08T14:56:50.644Z,27.47
2019-03-08T14:59:19.212Z,51.03
2019-03-08T15:01:47.810Z,56.87
2019-03-08T15:04:16.441Z,37.23
2019-03-08T15:06:45.011Z,22.97
2019-03-08T15:09:13.845Z,23.47
2019-03-08T15:11:42.458Z,23.73
2019-03-08T15:14:11.089Z,21.27
2019-03-08T15:16:40.100Z,27.40
2019-03-08T15:19:08.730Z,25.97
2019-03-08T15:21:41.499Z,30.47
2019-03-08T15:24:07.955Z,106.73
2019-03-08T15:26:36.643Z,62.87
2019-03-08T15:29:05.201Z,34.50
2019-03-08T15:31:33.768Z,34.23
2019-03-08T15:34:02.302Z,28.77
2019-03-08T15:36:30.889Z,40.83
2019-03-08T15:38:59.559Z,41.37
2019-03-08T15:41:28.173Z,35.23
2019-03-08T15:43:56.868Z,216.03
2019-03-08T15:46:26.859Z,108.07
2019-03-08T15:48:55.776Z,62.47
2019-03-08T15:51:25.231Z,40.80
2019-03-08T15:53:54.555Z,120.53
2019-03-08T15:56:23.306Z,80.67
2019-03-08T15:58:51.834Z,81.90
2019-03-08T16:01:21.319Z,68.03
2019-03-08T16:03:49.876Z,61.63
2019-03-08T16:06:19.651Z,72.40
2019-03-08T16:08:48.559Z,59.17
2019-03-08T16:11:17.168Z,57.93
2019-03-08T16:13:45.742Z,65.63
2019-03-08T16:16:14.423Z,63.50
2019-03-08T16:18:44.407Z,72.40
2019-03-08T16:21:14.313Z,63.30
2019-03-08T16:23:43.121Z,79.83
2019-03-08T16:26:11.751Z,73.70
2019-03-08T16:28:40.429Z,85.80
2019-03-08T16:31:10.393Z,70.60
2019-03-08T16:33:52.598Z,55.80
2019-03-08T16:36:25.288Z,50.00
2019-03-08T16:38:55.221Z,53.20
2019-03-08T16:41:41.323Z,48.37
2019-03-08T16:44:11.349Z,43.37
2019-03-08T16:46:41.216Z,39.30
2019-03-08T16:49:23.137Z,30.97
2019-03-08T16:52:01.656Z,40.90
2019-03-08T16:54:37.139Z,49.63
2019-03-08T16:57:16.251Z,51.43
2019-03-08T16:59:47.551Z,55.03
2019-03-08T17:02:17.834Z,66.77
2019-03-08T17:05:04.556Z,100.97
2019-03-08T17:07:37.828Z,54.60
2019-03-08T17:10:09.224Z,46.90
2019-03-08T17:12:39.496Z,46.97
2019-03-08T17:15:16.368Z,54.27
2019-03-08T17:17:46.656Z,79.33
2019-03-08T17:20:23.233Z,120.00
2019-03-08T17:23:10.304Z,117.37
2019-03-08T17:25:40.515Z,140.43
2019-03-08T17:28:23.119Z,137.80
2019-03-08T17:30:53.501Z,121.70
2019-03-08T17:33:41.570Z,110.90
2019-03-08T17:36:29.650Z,129.67
2019-03-08T17:39:05.715Z,106.03
2019-03-08T17:41:38.395Z,124.20
2019-03-08T17:44:28.266Z,121.73
2019-03-08T17:47:07.764Z,117.40
2019-03-08T17:49:44.034Z,178.57
2019-03-08T17:52:19.940Z,129.33
2019-03-08T17:54:56.036Z,96.57
2019-03-08T17:57:42.527Z,118.03
2019-03-08T18:00:26.192Z,145.83
2019-03-08T18:03:05.156Z,153.70
2019-03-08T18:05:38.300Z,142.90
2019-03-08T18:08:11.448Z,144.13
2019-03-08T18:10:41.787Z,140.23
2019-03-08T18:13:14.977Z,137.60
2019-03-08T18:15:45.248Z,131.83
2019-03-08T18:18:18.606Z,296.83
2019-03-08T18:20:51.568Z,135.63
2019-03-08T18:23:27.613Z,127.40
2019-03-08T18:26:00.634Z,144.33
2019-03-08T18:28:39.776Z,150.50
2019-03-08T18:31:26.267Z,182.67
2019-03-08T18:33:56.481Z,136.57
2019-03-08T18:36:41.465Z,142.20
2019-03-08T18:39:23.833Z,140.63
2019-03-08T18:42:00.159Z,132.27
2019-03-08T18:44:47.053Z,135.83
2019-03-08T18:47:20.379Z,155.40
2019-03-08T18:50:05.626Z,126.30
2019-03-08T18:52:54.071Z,140.40
2019-03-08T18:55:27.003Z,114.57
2019-03-08T18:58:13.246Z,106.17
2019-03-08T19:01:00.035Z,116.53
2019-03-08T19:03:46.395Z,125.93
2019-03-08T19:06:16.732Z,125.83
2019-03-08T19:08:46.949Z,137.23
2019-03-08T19:11:26.235Z,126.50
2019-03-08T19:14:15.604Z,119.00
2019-03-08T19:16:45.736Z,118.57
2019-03-08T19:19:16.007Z,106.20
2019-03-08T19:21:52.245Z,109.23
2019-03-08T19:24:22.495Z,93.93
2019-03-08T19:27:12.000Z,96.80
2019-03-08T19:29:42.429Z,89.50
2019-03-08T19:32:15.563Z,89.17
2019-03-08T19:34:52.020Z,85.40
2019-03-08T19:37:38.026Z,93.77
2019-03-08T19:40:11.466Z,81.60
2019-03-08T19:42:44.484Z,77.70
2019-03-08T19:45:30.831Z,83.27
2019-03-08T19:48:03.510Z,73.03
2019-03-08T19:50:36.655Z,70.60
2019-03-08T19:53:23.100Z,78.70
2019-03-08T19:56:05.666Z,88.93
2019-03-08T19:58:38.610Z,102.93
2019-03-08T20:01:14.552Z,109.97
2019-03-08T20:03:59.669Z,125.77
2019-03-08T20:06:38.631Z,128.67
2019-03-08T20:09:16.197Z,134.73
2019-03-08T20:11:46.389Z,132.27
2019-03-08T20:14:16.601Z,128.00
2019-03-08T20:16:46.819Z,133.80
2019-03-08T20:19:19.945Z,132.60
2019-03-08T20:22:02.693Z,123.50
2019-03-08T20:24:54.003Z,138.60
2019-03-08T20:27:39.641Z,129.97
2019-03-08T20:30:15.548Z,120.27
2019-03-08T20:32:48.248Z,128.53
2019-03-08T20:35:18.573Z,118.47
2019-03-08T20:37:51.463Z,134.70
2019-03-08T20:40:27.363Z,120.47
2019-03-08T20:43:03.211Z,130.73
2019-03-08T20:45:42.970Z,109.10
2019-03-08T20:48:11.539Z,96.57
2019-03-08T20:50:40.223Z,89.97
2019-03-08T20:53:08.832Z,90.73
2019-03-08T20:55:37.480Z,84.00
2019-03-08T20:58:06.146Z,84.37
2019-03-08T21:00:34.780Z,82.20
2019-03-08T21:03:03.465Z,88.10
2019-03-08T21:05:35.065Z,97.80
2019-03-08T21:08:03.670Z,94.00
2019-03-08T21:10:32.420Z,84.33
2019-03-08T21:13:00.978Z,92.13
2019-03-08T21:15:29.648Z,85.40
2019-03-08T21:17:58.216Z,99.80
2019-03-08T21:20:26.832Z,86.53
2019-03-08T21:22:55.396Z,92.53
2019-03-08T21:25:24.002Z,82.90
2019-03-08T21:27:52.638Z,89.80
2019-03-08T21:30:21.583Z,83.43
2019-03-08T21:32:50.220Z,95.67
2019-03-08T21:35:18.844Z,89.53
2019-03-08T21:37:47.636Z,87.10
2019-03-08T21:40:16.274Z,109.70
2019-03-08T21:42:44.883Z,88.00
2019-03-08T21:45:15.517Z,83.93
2019-03-08T21:47:44.193Z,87.43
2019-03-08T21:50:17.706Z,87.20
2019-03-08T21:52:46.397Z,99.80
2019-03-08T21:55:15.016Z,95.33
2019-03-08T21:57:43.688Z,85.03
2019-03-08T22:00:17.247Z,89.60
2019-03-08T22:02:45.885Z,87.93
2019-03-08T22:05:18.893Z,83.47
2019-03-08T22:07:47.462Z,91.47
2019-03-08T22:10:17.775Z,81.77
2019-03-08T22:12:46.405Z,78.27
2019-03-08T22:15:15.084Z,85.23
2019-03-08T22:17:43.713Z,86.97
2019-03-08T22:20:12.389Z,89.53
2019-03-08T22:22:41.018Z,85.90
2019-03-08T22:25:11.600Z,94.50
2019-03-08T22:27:40.371Z,86.47
2019-03-08T22:30:12.108Z,81.73
2019-03-08T22:32:40.742Z,78.00
2019-03-08T22:35:09.305Z,76.80
2019-03-08T22:37:37.976Z,79.00
2019-03-08T22:40:08.290Z,80.43
2019-03-08T22:42:36.969Z,92.83
2019-03-08T22:45:07.299Z,72.30
2019-03-08T22:47:35.969Z,81.57
2019-03-08T22:50:07.747Z,81.57
2019-03-08T22:52:36.654Z,72.33
2019-03-08T22:55:07.823Z,75.90
2019-03-08T22:57:36.388Z,83.87
2019-03-08T23:00:07.980Z,73.53
2019-03-08T23:02:36.470Z,78.10
2019-03-08T23:05:06.373Z,80.00
2019-03-08T23:07:34.978Z,75.43
2019-03-08T23:10:06.421Z,73.47
2019-03-08T23:12:35.049Z,70.70
2019-03-08T23:15:05.036Z,74.23
2019-03-08T23:17:33.813Z,70.37
2019-03-08T23:20:02.458Z,70.20
2019-03-08T23:22:30.994Z,58.67
2019-03-08T23:24:59.568Z,62.27
2019-03-08T23:27:32.640Z,60.27
2019-03-08T23:30:02.475Z,62.10
2019-03-08T23:32:32.765Z,57.57
2019-03-08T23:35:01.437Z,53.50
2019-03-08T23:37:31.362Z,54.03
2019-03-08T23:39:59.790Z,49.57
2019-03-08T23:42:28.597Z,49.40
2019-03-08T23:44:57.212Z,47.23
2019-03-08T23:47:25.768Z,46.90
2019-03-08T23:49:54.328Z,45.30
2019-03-08T23:52:22.929Z,49.20
2019-03-08T23:54:51.415Z,48.50
2019-03-08T23:57:20.114Z,49.70
2019-03-08T23:59:48.716Z,51.87
